Roosevelt, Louisiana
Current Conditions -  °F | °C
As of 7:53 AM on Monday 26 Jan 2015 (Local Time) from KTVR Reporting Station
Overcast Overcast  
Wind Chill: 39°   Ceiling: 3200
Heat Index: 45°   Visibility: 10mi
Dew Point: 33°   Wind: 12mph
Humidity: 63%   Direction: 340°NNW
Pressure: 30.16"   Gusts: 18mph
Location:  32.5752°N, 91.2825°W
Report Text: KTVR 261353Z AUTO 34010G16KT 10SM OVC032 07/01 A3016 RMK AO2 SLP219 T00720006
Loading
Personal Weather Stations






























Interactive Weather Map New forecast layout! Learn more

10-Day Weather Forecast

Advertisements
Track Severe Weather on mobile